sensor_id;sensor_type;location;lat;lon;timestamp;pressure;altitude;pressure_sealevel;temperature;humidity
44351;BME280;62766;62.622;17.912;2023-04-25T00:00:00;100405.87;;;2.15;61.15
44351;BME280;62766;62.622;17.912;2023-04-25T00:02:28;100407.09;;;2.25;61.43
44351;BME280;62766;62.622;17.912;2023-04-25T00:04:57;100407.10;;;2.16;61.67
44351;BME280;62766;62.622;17.912;2023-04-25T00:07:25;100406.40;;;2.12;61.69
44351;BME280;62766;62.622;17.912;2023-04-25T00:09:54;100400.05;;;2.12;61.76
44351;BME280;62766;62.622;17.912;2023-04-25T00:12:22;100393.62;;;1.98;62.07
44351;BME280;62766;62.622;17.912;2023-04-25T00:14:51;100396.83;;;1.95;62.47
44351;BME280;62766;62.622;17.912;2023-04-25T00:17:19;100399.59;;;1.90;62.65
44351;BME280;62766;62.622;17.912;2023-04-25T00:19:47;100406.66;;;2.07;62.59
44351;BME280;62766;62.622;17.912;2023-04-25T00:22:16;100406.56;;;2.10;62.75
44351;BME280;62766;62.622;17.912;2023-04-25T00:24:45;100402.89;;;2.07;62.92
44351;BME280;62766;62.622;17.912;2023-04-25T00:27:14;100396.68;;;1.99;63.06
44351;BME280;62766;62.622;17.912;2023-04-25T00:29:42;100394.59;;;1.96;63.45
44351;BME280;62766;62.622;17.912;2023-04-25T00:32:11;100396.04;;;1.98;63.71
44351;BME280;62766;62.622;17.912;2023-04-25T00:34:40;100383.96;;;1.98;63.98
44351;BME280;62766;62.622;17.912;2023-04-25T00:37:10;100380.46;;;1.99;64.32
44351;BME280;62766;62.622;17.912;2023-04-25T00:39:38;100378.42;;;1.96;64.20
44351;BME280;62766;62.622;17.912;2023-04-25T00:42:07;100374.33;;;1.92;64.52
44351;BME280;62766;62.622;17.912;2023-04-25T00:44:37;100371.43;;;1.85;64.77
44351;BME280;62766;62.622;17.912;2023-04-25T00:47:05;100366.35;;;1.97;65.03
44351;BME280;62766;62.622;17.912;2023-04-25T00:49:35;100359.96;;;2.01;65.06
44351;BME280;62766;62.622;17.912;2023-04-25T00:52:04;100358.02;;;1.94;65.04
44351;BME280;62766;62.622;17.912;2023-04-25T00:54:32;100354.94;;;1.99;65.17
44351;BME280;62766;62.622;17.912;2023-04-25T00:57:01;100347.24;;;1.91;65.16
44351;BME280;62766;62.622;17.912;2023-04-25T00:59:30;100351.56;;;2.02;65.15
44351;BME280;62766;62.622;17.912;2023-04-25T01:01:58;100356.62;;;2.04;65.07
44351;BME280;62766;62.622;17.912;2023-04-25T01:04:27;100360.90;;;2.07;65.22
44351;BME280;62766;62.622;17.912;2023-04-25T01:06:55;100353.24;;;1.98;65.24
44351;BME280;62766;62.622;17.912;2023-04-25T01:09:24;100346.32;;;1.96;65.29
44351;BME280;62766;62.622;17.912;2023-04-25T01:11:52;100348.54;;;1.97;65.49
44351;BME280;62766;62.622;17.912;2023-04-25T01:14:21;100349.82;;;1.98;65.42
44351;BME280;62766;62.622;17.912;2023-04-25T01:16:50;100354.59;;;2.05;65.46
44351;BME280;62766;62.622;17.912;2023-04-25T01:19:19;100361.39;;;2.09;65.41
44351;BME280;62766;62.622;17.912;2023-04-25T01:21:49;100367.51;;;2.03;65.52
44351;BME280;62766;62.622;17.912;2023-04-25T01:24:19;100366.75;;;2.01;65.70
44351;BME280;62766;62.622;17.912;2023-04-25T01:26:47;100366.93;;;1.93;65.91
44351;BME280;62766;62.622;17.912;2023-04-25T01:29:18;100375.28;;;1.92;66.05
44351;BME280;62766;62.622;17.912;2023-04-25T01:31:46;100379.51;;;1.89;66.34
44351;BME280;62766;62.622;17.912;2023-04-25T01:34:14;100381.45;;;2.00;66.33
44351;BME280;62766;62.622;17.912;2023-04-25T01:36:43;100378.96;;;1.87;66.41
44351;BME280;62766;62.622;17.912;2023-04-25T01:39:11;100373.60;;;1.91;66.66
44351;BME280;62766;62.622;17.912;2023-04-25T01:41:40;100375.80;;;1.95;66.96
44351;BME280;62766;62.622;17.912;2023-04-25T01:44:10;100377.18;;;1.91;66.80
44351;BME280;62766;62.622;17.912;2023-04-25T01:46:38;100374.55;;;1.88;66.75
44351;BME280;62766;62.622;17.912;2023-04-25T01:49:07;100376.50;;;1.79;66.98
44351;BME280;62766;62.622;17.912;2023-04-25T01:51:35;100374.24;;;1.86;67.36
44351;BME280;62766;62.622;17.912;2023-04-25T01:54:04;100369.06;;;1.82;67.72
44351;BME280;62766;62.622;17.912;2023-04-25T01:56:32;100361.11;;;1.78;67.79
44351;BME280;62766;62.622;17.912;2023-04-25T01:59:00;100360.01;;;1.78;67.91
44351;BME280;62766;62.622;17.912;2023-04-25T02:01:29;100352.51;;;1.77;68.18
44351;BME280;62766;62.622;17.912;2023-04-25T02:03:57;100344.05;;;1.80;68.12
44351;BME280;62766;62.622;17.912;2023-04-25T02:06:26;100342.36;;;1.78;68.13
44351;BME280;62766;62.622;17.912;2023-04-25T02:08:55;100345.46;;;1.87;68.16
44351;BME280;62766;62.622;17.912;2023-04-25T02:11:23;100346.97;;;1.82;68.28
44351;BME280;62766;62.622;17.912;2023-04-25T02:13:52;100344.17;;;1.73;68.45
44351;BME280;62766;62.622;17.912;2023-04-25T02:16:21;100340.61;;;1.74;68.43
44351;BME280;62766;62.622;17.912;2023-04-25T02:18:50;100335.93;;;1.83;68.52
44351;BME280;62766;62.622;17.912;2023-04-25T02:21:19;100337.16;;;1.69;68.58
44351;BME280;62766;62.622;17.912;2023-04-25T02:23:48;100334.32;;;1.85;68.50
44351;BME280;62766;62.622;17.912;2023-04-25T02:26:16;100330.67;;;1.82;68.38
44351;BME280;62766;62.622;17.912;2023-04-25T02:28:45;100328.87;;;1.81;68.20
44351;BME280;62766;62.622;17.912;2023-04-25T02:31:14;100327.50;;;1.83;68.18
44351;BME280;62766;62.622;17.912;2023-04-25T02:33:43;100322.70;;;1.90;68.46
44351;BME280;62766;62.622;17.912;2023-04-25T02:36:11;100321.84;;;1.83;68.44
44351;BME280;62766;62.622;17.912;2023-04-25T02:38:40;100312.26;;;1.83;68.37
44351;BME280;62766;62.622;17.912;2023-04-25T02:41:08;100316.48;;;1.75;68.28
44351;BME280;62766;62.622;17.912;2023-04-25T02:43:37;100322.04;;;1.82;68.33
44351;BME280;62766;62.622;17.912;2023-04-25T02:46:05;100321.01;;;1.78;68.14
44351;BME280;62766;62.622;17.912;2023-04-25T02:48:34;100324.44;;;1.84;68.22
44351;BME280;62766;62.622;17.912;2023-04-25T02:51:03;100325.53;;;1.84;68.28
44351;BME280;62766;62.622;17.912;2023-04-25T02:53:32;100322.25;;;1.85;68.31
44351;BME280;62766;62.622;17.912;2023-04-25T02:56:00;100322.31;;;1.90;68.33
44351;BME280;62766;62.622;17.912;2023-04-25T02:58:29;100312.02;;;1.85;68.02
44351;BME280;62766;62.622;17.912;2023-04-25T03:00:57;100309.56;;;1.92;68.08
44351;BME280;62766;62.622;17.912;2023-04-25T03:03:26;100306.14;;;1.92;68.02
44351;BME280;62766;62.622;17.912;2023-04-25T03:05:55;100301.95;;;1.89;68.09
44351;BME280;62766;62.622;17.912;2023-04-25T03:08:23;100300.68;;;1.94;68.15
44351;BME280;62766;62.622;17.912;2023-04-25T03:10:51;100298.37;;;1.79;68.24
44351;BME280;62766;62.622;17.912;2023-04-25T03:13:20;100294.97;;;1.80;68.29
44351;BME280;62766;62.622;17.912;2023-04-25T03:15:48;100293.28;;;1.94;68.22
44351;BME280;62766;62.622;17.912;2023-04-25T03:18:16;100284.76;;;1.89;68.24
44351;BME280;62766;62.622;17.912;2023-04-25T03:20:44;100293.08;;;1.85;68.13
44351;BME280;62766;62.622;17.912;2023-04-25T03:23:13;100283.56;;;1.85;68.30
44351;BME280;62766;62.622;17.912;2023-04-25T03:25:42;100281.77;;;1.91;68.37
44351;BME280;62766;62.622;17.912;2023-04-25T03:28:10;100283.90;;;1.90;68.42
44351;BME280;62766;62.622;17.912;2023-04-25T03:30:38;100281.48;;;1.87;68.29
44351;BME280;62766;62.622;17.912;2023-04-25T03:33:07;100271.69;;;1.89;68.37
44351;BME280;62766;62.622;17.912;2023-04-25T03:35:35;100273.44;;;1.85;68.45
44351;BME280;62766;62.622;17.912;2023-04-25T03:38:04;100262.04;;;1.94;68.76
44351;BME280;62766;62.622;17.912;2023-04-25T03:40:32;100269.20;;;1.84;68.73
44351;BME280;62766;62.622;17.912;2023-04-25T03:43:00;100267.70;;;1.96;68.77
44351;BME280;62766;62.622;17.912;2023-04-25T03:45:28;100261.97;;;1.85;68.86
44351;BME280;62766;62.622;17.912;2023-04-25T03:47:57;100265.33;;;1.93;69.04
44351;BME280;62766;62.622;17.912;2023-04-25T03:50:25;100271.97;;;1.82;69.17
44351;BME280;62766;62.622;17.912;2023-04-25T03:52:54;100270.53;;;1.81;69.17
44351;BME280;62766;62.622;17.912;2023-04-25T03:55:22;100265.57;;;1.89;69.15
44351;BME280;62766;62.622;17.912;2023-04-25T03:57:50;100266.45;;;1.92;69.08
44351;BME280;62766;62.622;17.912;2023-04-25T04:03:21;100258.85;;;1.68;69.11
44351;BME280;62766;62.622;17.912;2023-04-25T04:05:50;100257.83;;;1.75;69.07
44351;BME280;62766;62.622;17.912;2023-04-25T04:08:20;100255.24;;;1.77;68.96
44351;BME280;62766;62.622;17.912;2023-04-25T04:10:49;100251.84;;;1.83;69.00
44351;BME280;62766;62.622;17.912;2023-04-25T04:13:18;100249.64;;;1.91;68.95
44351;BME280;62766;62.622;17.912;2023-04-25T04:15:46;100245.23;;;1.88;68.88
44351;BME280;62766;62.622;17.912;2023-04-25T04:18:15;100245.41;;;1.88;68.89
44351;BME280;62766;62.622;17.912;2023-04-25T04:20:44;100242.56;;;1.85;68.99
44351;BME280;62766;62.622;17.912;2023-04-25T04:23:13;100233.81;;;1.75;69.13
44351;BME280;62766;62.622;17.912;2023-04-25T04:25:42;100233.22;;;1.81;69.34
44351;BME280;62766;62.622;17.912;2023-04-25T04:28:10;100235.12;;;1.97;69.35
44351;BME280;62766;62.622;17.912;2023-04-25T04:30:39;100232.08;;;1.92;69.33
44351;BME280;62766;62.622;17.912;2023-04-25T04:33:07;100234.08;;;1.82;69.44
44351;BME280;62766;62.622;17.912;2023-04-25T04:35:35;100230.53;;;1.83;69.68
44351;BME280;62766;62.622;17.912;2023-04-25T04:38:04;100229.64;;;1.87;69.75
44351;BME280;62766;62.622;17.912;2023-04-25T04:40:33;100231.59;;;1.80;69.93
44351;BME280;62766;62.622;17.912;2023-04-25T04:43:01;100229.09;;;1.87;69.75
44351;BME280;62766;62.622;17.912;2023-04-25T04:45:29;100232.01;;;1.86;69.69
44351;BME280;62766;62.622;17.912;2023-04-25T04:47:58;100225.99;;;1.82;69.72
44351;BME280;62766;62.622;17.912;2023-04-25T04:50:26;100227.92;;;1.83;69.67
44351;BME280;62766;62.622;17.912;2023-04-25T04:52:55;100227.45;;;1.97;69.61
44351;BME280;62766;62.622;17.912;2023-04-25T04:55:24;100229.40;;;1.96;69.44
44351;BME280;62766;62.622;17.912;2023-04-25T04:57:52;100226.52;;;2.06;69.13
44351;BME280;62766;62.622;17.912;2023-04-25T05:00:22;100226.85;;;2.07;68.94
44351;BME280;62766;62.622;17.912;2023-04-25T05:02:49;100223.99;;;2.10;68.46
44351;BME280;62766;62.622;17.912;2023-04-25T05:05:18;100218.74;;;2.11;68.52
44351;BME280;62766;62.622;17.912;2023-04-25T05:07:46;100216.35;;;2.12;68.45
44351;BME280;62766;62.622;17.912;2023-04-25T05:10:15;100215.23;;;2.17;68.46
44351;BME280;62766;62.622;17.912;2023-04-25T05:12:43;100215.11;;;2.14;68.28
44351;BME280;62766;62.622;17.912;2023-04-25T05:15:12;100219.44;;;2.15;68.30
44351;BME280;62766;62.622;17.912;2023-04-25T05:17:40;100226.17;;;2.09;68.42
44351;BME280;62766;62.622;17.912;2023-04-25T05:20:09;100223.41;;;2.02;68.67
44351;BME280;62766;62.622;17.912;2023-04-25T05:22:37;100223.39;;;2.14;68.81
44351;BME280;62766;62.622;17.912;2023-04-25T05:25:06;100226.44;;;2.14;68.84
44351;BME280;62766;62.622;17.912;2023-04-25T05:27:34;100233.26;;;2.04;69.00
44351;BME280;62766;62.622;17.912;2023-04-25T05:30:04;100241.54;;;1.97;69.23
44351;BME280;62766;62.622;17.912;2023-04-25T05:32:33;100240.80;;;2.05;69.25
44351;BME280;62766;62.622;17.912;2023-04-25T05:35:01;100246.29;;;2.11;69.25
44351;BME280;62766;62.622;17.912;2023-04-25T05:37:30;100244.41;;;1.95;69.25
44351;BME280;62766;62.622;17.912;2023-04-25T05:39:59;100244.95;;;2.02;69.12
44351;BME280;62766;62.622;17.912;2023-04-25T05:42:27;100243.34;;;1.92;69.23
44351;BME280;62766;62.622;17.912;2023-04-25T05:44:56;100237.52;;;1.83;69.23
44351;BME280;62766;62.622;17.912;2023-04-25T05:47:25;100241.39;;;1.95;69.43
44351;BME280;62766;62.622;17.912;2023-04-25T05:49:54;100238.17;;;2.02;69.53
44351;BME280;62766;62.622;17.912;2023-04-25T05:52:23;100235.85;;;2.07;69.56
44351;BME280;62766;62.622;17.912;2023-04-25T05:54:52;100235.32;;;2.15;69.27
44351;BME280;62766;62.622;17.912;2023-04-25T05:59:50;100235.15;;;2.20;69.10
44351;BME280;62766;62.622;17.912;2023-04-25T06:02:18;100241.68;;;2.13;69.28
44351;BME280;62766;62.622;17.912;2023-04-25T06:04:46;100228.77;;;2.11;69.56
44351;BME280;62766;62.622;17.912;2023-04-25T06:07:15;100232.10;;;2.03;69.90
44351;BME280;62766;62.622;17.912;2023-04-25T06:09:44;100225.47;;;2.02;70.03
44351;BME280;62766;62.622;17.912;2023-04-25T06:12:12;100221.22;;;2.14;70.16
44351;BME280;62766;62.622;17.912;2023-04-25T06:14:41;100223.51;;;2.10;70.38
44351;BME280;62766;62.622;17.912;2023-04-25T06:17:09;100217.99;;;2.16;70.35
44351;BME280;62766;62.622;17.912;2023-04-25T06:19:38;100215.95;;;2.05;70.55
44351;BME280;62766;62.622;17.912;2023-04-25T06:22:07;100208.56;;;2.15;70.47
44351;BME280;62766;62.622;17.912;2023-04-25T06:24:35;100201.63;;;2.17;70.53
44351;BME280;62766;62.622;17.912;2023-04-25T06:27:04;100194.85;;;2.23;70.79
44351;BME280;62766;62.622;17.912;2023-04-25T06:29:33;100195.54;;;2.22;70.81
44351;BME280;62766;62.622;17.912;2023-04-25T06:32:01;100187.29;;;2.25;70.85
44351;BME280;62766;62.622;17.912;2023-04-25T06:34:29;100179.94;;;2.23;70.94
44351;BME280;62766;62.622;17.912;2023-04-25T06:36:58;100173.05;;;2.17;70.85
44351;BME280;62766;62.622;17.912;2023-04-25T06:39:26;100166.89;;;2.13;70.96
44351;BME280;62766;62.622;17.912;2023-04-25T06:41:55;100164.04;;;2.16;71.38
44351;BME280;62766;62.622;17.912;2023-04-25T06:44:23;100157.73;;;2.07;71.36
44351;BME280;62766;62.622;17.912;2023-04-25T06:46:52;100151.67;;;2.12;71.49
44351;BME280;62766;62.622;17.912;2023-04-25T06:49:22;100151.37;;;1.96;71.55
44351;BME280;62766;62.622;17.912;2023-04-25T06:51:51;100146.51;;;2.17;71.48
44351;BME280;62766;62.622;17.912;2023-04-25T06:54:20;100139.51;;;2.31;71.42
44351;BME280;62766;62.622;17.912;2023-04-25T06:56:50;100142.23;;;2.24;70.85
44351;BME280;62766;62.622;17.912;2023-04-25T06:59:20;100138.77;;;2.24;70.76
44351;BME280;62766;62.622;17.912;2023-04-25T07:01:49;100137.87;;;2.50;70.32
44351;BME280;62766;62.622;17.912;2023-04-25T07:04:17;100131.12;;;2.51;70.35
44351;BME280;62766;62.622;17.912;2023-04-25T07:06:46;100133.32;;;2.45;70.40
44351;BME280;62766;62.622;17.912;2023-04-25T07:09:15;100136.57;;;2.39;70.30
44351;BME280;62766;62.622;17.912;2023-04-25T07:11:43;100139.77;;;2.52;70.19
44351;BME280;62766;62.622;17.912;2023-04-25T07:14:12;100134.28;;;2.44;70.30
44351;BME280;62766;62.622;17.912;2023-04-25T07:16:40;100141.05;;;2.35;70.44
44351;BME280;62766;62.622;17.912;2023-04-25T07:19:09;100133.92;;;2.38;70.66
44351;BME280;62766;62.622;17.912;2023-04-25T07:21:37;100125.23;;;2.43;70.69
44351;BME280;62766;62.622;17.912;2023-04-25T07:24:06;100125.79;;;2.34;70.32
44351;BME280;62766;62.622;17.912;2023-04-25T07:26:34;100118.18;;;2.34;70.44
44351;BME280;62766;62.622;17.912;2023-04-25T07:29:02;100109.14;;;2.37;70.62
44351;BME280;62766;62.622;17.912;2023-04-25T07:31:31;100101.93;;;2.41;70.40
44351;BME280;62766;62.622;17.912;2023-04-25T07:33:59;100097.95;;;2.35;70.22
44351;BME280;62766;62.622;17.912;2023-04-25T07:36:27;100093.55;;;2.27;70.29
44351;BME280;62766;62.622;17.912;2023-04-25T07:38:56;100100.06;;;2.39;70.75
44351;BME280;62766;62.622;17.912;2023-04-25T07:41:24;100100.77;;;2.28;70.71
44351;BME280;62766;62.622;17.912;2023-04-25T07:43:53;100095.97;;;2.27;70.65
44351;BME280;62766;62.622;17.912;2023-04-25T07:46:22;100103.32;;;2.31;70.86
44351;BME280;62766;62.622;17.912;2023-04-25T07:48:50;100088.69;;;2.35;70.14
44351;BME280;62766;62.622;17.912;2023-04-25T07:51:19;100093.10;;;2.32;70.48
44351;BME280;62766;62.622;17.912;2023-04-25T07:53:47;100093.22;;;2.40;70.47
44351;BME280;62766;62.622;17.912;2023-04-25T07:56:15;100090.90;;;2.34;70.03
44351;BME280;62766;62.622;17.912;2023-04-25T07:58:44;100080.55;;;2.36;69.68
44351;BME280;62766;62.622;17.912;2023-04-25T08:01:12;100086.93;;;2.49;69.79
44351;BME280;62766;62.622;17.912;2023-04-25T08:03:41;100086.69;;;2.34;69.96
44351;BME280;62766;62.622;17.912;2023-04-25T08:06:09;100072.80;;;2.38;69.97
44351;BME280;62766;62.622;17.912;2023-04-25T08:08:38;100065.48;;;2.43;69.87
44351;BME280;62766;62.622;17.912;2023-04-25T08:11:07;100062.56;;;2.46;69.77
44351;BME280;62766;62.622;17.912;2023-04-25T08:13:35;100056.71;;;2.67;69.18
44351;BME280;62766;62.622;17.912;2023-04-25T08:16:04;100050.46;;;2.64;68.95
44351;BME280;62766;62.622;17.912;2023-04-25T08:18:32;100044.74;;;2.70;68.68
44351;BME280;62766;62.622;17.912;2023-04-25T08:21:00;100052.00;;;2.64;68.65
44351;BME280;62766;62.622;17.912;2023-04-25T08:23:29;100041.88;;;2.55;68.78
44351;BME280;62766;62.622;17.912;2023-04-25T08:25:57;100039.74;;;2.57;68.96
44351;BME280;62766;62.622;17.912;2023-04-25T08:28:26;100035.49;;;2.51;69.04
44351;BME280;62766;62.622;17.912;2023-04-25T08:30:54;100036.85;;;2.59;68.91
44351;BME280;62766;62.622;17.912;2023-04-25T08:33:23;100035.09;;;2.42;69.33
44351;BME280;62766;62.622;17.912;2023-04-25T08:35:51;100034.65;;;2.41;69.49
44351;BME280;62766;62.622;17.912;2023-04-25T08:38:20;100034.71;;;2.46;69.23
44351;BME280;62766;62.622;17.912;2023-04-25T08:40:50;100036.11;;;2.53;69.25
44351;BME280;62766;62.622;17.912;2023-04-25T08:43:20;100029.22;;;2.47;69.22
44351;BME280;62766;62.622;17.912;2023-04-25T08:45:49;100031.69;;;2.52;69.42
44351;BME280;62766;62.622;17.912;2023-04-25T08:48:17;100028.57;;;2.38;69.39
44351;BME280;62766;62.622;17.912;2023-04-25T08:50:50;100023.63;;;2.48;69.52
44351;BME280;62766;62.622;17.912;2023-04-25T08:53:23;100023.06;;;2.56;69.00
44351;BME280;62766;62.622;17.912;2023-04-25T08:55:55;100029.43;;;2.69;68.85
44351;BME280;62766;62.622;17.912;2023-04-25T08:58:24;100026.91;;;2.46;68.52
44351;BME280;62766;62.622;17.912;2023-04-25T09:00:52;100021.63;;;2.50;68.40
44351;BME280;62766;62.622;17.912;2023-04-25T09:03:22;100024.13;;;2.58;68.44
44351;BME280;62766;62.622;17.912;2023-04-25T09:05:51;100027.91;;;2.47;68.78
44351;BME280;62766;62.622;17.912;2023-04-25T09:08:20;100022.28;;;2.56;68.89
44351;BME280;62766;62.622;17.912;2023-04-25T09:10:50;100026.13;;;2.41;69.13
44351;BME280;62766;62.622;17.912;2023-04-25T09:13:25;100023.83;;;2.37;69.25
44351;BME280;62766;62.622;17.912;2023-04-25T09:15:55;100023.14;;;2.49;69.07
44351;BME280;62766;62.622;17.912;2023-04-25T09:18:25;100020.91;;;2.31;68.99
44351;BME280;62766;62.622;17.912;2023-04-25T09:20:55;100020.40;;;2.44;68.94
44351;BME280;62766;62.622;17.912;2023-04-25T09:23:24;100017.34;;;2.46;68.75
44351;BME280;62766;62.622;17.912;2023-04-25T09:25:53;100018.43;;;2.51;68.79
44351;BME280;62766;62.622;17.912;2023-04-25T09:28:23;100020.01;;;2.39;68.81
44351;BME280;62766;62.622;17.912;2023-04-25T09:30:55;100020.48;;;2.28;68.92
44351;BME280;62766;62.622;17.912;2023-04-25T09:33:28;100021.89;;;2.36;69.28
44351;BME280;62766;62.622;17.912;2023-04-25T09:36:02;100029.55;;;2.32;69.29
44351;BME280;62766;62.622;17.912;2023-04-25T09:38:32;100026.73;;;2.35;69.24
44351;BME280;62766;62.622;17.912;2023-04-25T09:41:01;100025.39;;;2.53;69.18
44351;BME280;62766;62.622;17.912;2023-04-25T09:43:29;100025.56;;;2.57;68.96
44351;BME280;62766;62.622;17.912;2023-04-25T09:45:58;100027.83;;;2.44;68.92
44351;BME280;62766;62.622;17.912;2023-04-25T09:48:27;100029.34;;;2.55;68.56
44351;BME280;62766;62.622;17.912;2023-04-25T09:51:07;100033.71;;;2.57;68.68
44351;BME280;62766;62.622;17.912;2023-04-25T09:53:37;100034.67;;;2.64;68.27
44351;BME280;62766;62.622;17.912;2023-04-25T09:56:07;100033.57;;;2.60;68.36
44351;BME280;62766;62.622;17.912;2023-04-25T09:58:38;100030.94;;;2.66;68.12
44351;BME280;62766;62.622;17.912;2023-04-25T10:03:30;100028.45;;;2.45;68.66
44351;BME280;62766;62.622;17.912;2023-04-25T10:06:00;100036.39;;;2.51;68.59
44351;BME280;62766;62.622;17.912;2023-04-25T10:08:32;100029.55;;;2.54;68.44
44351;BME280;62766;62.622;17.912;2023-04-25T10:11:02;100029.12;;;2.70;68.66
44351;BME280;62766;62.622;17.912;2023-04-25T10:13:32;100030.18;;;2.66;68.10
44351;BME280;62766;62.622;17.912;2023-04-25T10:16:03;100030.67;;;2.76;67.99
44351;BME280;62766;62.622;17.912;2023-04-25T10:18:32;100032.68;;;2.83;68.03
44351;BME280;62766;62.622;17.912;2023-04-25T10:21:04;100032.35;;;2.73;67.72
44351;BME280;62766;62.622;17.912;2023-04-25T10:23:34;100032.76;;;2.60;68.07
44351;BME280;62766;62.622;17.912;2023-04-25T10:26:04;100029.35;;;2.65;68.19
44351;BME280;62766;62.622;17.912;2023-04-25T10:28:55;100032.80;;;2.73;67.93
44351;BME280;62766;62.622;17.912;2023-04-25T10:31:23;100034.20;;;2.71;67.87
44351;BME280;62766;62.622;17.912;2023-04-25T10:33:53;100032.25;;;2.59;67.69
44351;BME280;62766;62.622;17.912;2023-04-25T10:36:23;100031.26;;;2.69;67.58
44351;BME280;62766;62.622;17.912;2023-04-25T10:38:53;100028.88;;;2.64;68.02
44351;BME280;62766;62.622;17.912;2023-04-25T10:41:22;100027.26;;;2.56;68.17
44351;BME280;62766;62.622;17.912;2023-04-25T10:43:59;100027.91;;;2.60;67.79
44351;BME280;62766;62.622;17.912;2023-04-25T10:46:28;100031.84;;;2.77;67.84
44351;BME280;62766;62.622;17.912;2023-04-25T10:48:58;100027.54;;;2.81;67.74
44351;BME280;62766;62.622;17.912;2023-04-25T10:51:29;100026.38;;;2.90;67.30
44351;BME280;62766;62.622;17.912;2023-04-25T10:53:59;100027.53;;;3.00;66.97
44351;BME280;62766;62.622;17.912;2023-04-25T10:56:29;100027.32;;;2.91;66.82
44351;BME280;62766;62.622;17.912;2023-04-25T10:59:06;100024.15;;;3.14;66.34
44351;BME280;62766;62.622;17.912;2023-04-25T11:01:38;100031.08;;;3.08;66.19
44351;BME280;62766;62.622;17.912;2023-04-25T11:04:20;100031.68;;;2.97;66.60
44351;BME280;62766;62.622;17.912;2023-04-25T11:07:03;100033.11;;;2.97;66.42
44351;BME280;62766;62.622;17.912;2023-04-25T11:09:34;100032.96;;;3.03;66.60
44351;BME280;62766;62.622;17.912;2023-04-25T11:12:04;100027.63;;;2.84;66.74
44351;BME280;62766;62.622;17.912;2023-04-25T11:14:32;100026.78;;;2.82;67.03
44351;BME280;62766;62.622;17.912;2023-04-25T11:17:00;100025.83;;;3.01;66.82
44351;BME280;62766;62.622;17.912;2023-04-25T11:19:29;100024.17;;;3.00;66.48
44351;BME280;62766;62.622;17.912;2023-04-25T11:21:58;100023.83;;;2.95;66.47
44351;BME280;62766;62.622;17.912;2023-04-25T11:24:28;100019.99;;;3.06;66.51
44351;BME280;62766;62.622;17.912;2023-04-25T11:26:57;100021.65;;;2.91;66.71
44351;BME280;62766;62.622;17.912;2023-04-25T11:29:27;100020.25;;;2.84;67.25
44351;BME280;62766;62.622;17.912;2023-04-25T11:31:56;100011.59;;;2.72;67.58
44351;BME280;62766;62.622;17.912;2023-04-25T11:34:25;100012.84;;;2.86;67.29
44351;BME280;62766;62.622;17.912;2023-04-25T11:36:54;100006.87;;;2.79;67.46
44351;BME280;62766;62.622;17.912;2023-04-25T11:39:24;100006.61;;;3.02;67.23
44351;BME280;62766;62.622;17.912;2023-04-25T11:41:52;100002.28;;;3.05;66.71
44351;BME280;62766;62.622;17.912;2023-04-25T11:44:21;99997.26;;;3.17;66.12
44351;BME280;62766;62.622;17.912;2023-04-25T11:46:51;99992.28;;;3.38;65.74
44351;BME280;62766;62.622;17.912;2023-04-25T11:49:19;99979.76;;;3.56;64.96
44351;BME280;62766;62.622;17.912;2023-04-25T11:51:48;99978.41;;;3.43;64.52
44351;BME280;62766;62.622;17.912;2023-04-25T11:54:16;99976.67;;;3.57;64.83
44351;BME280;62766;62.622;17.912;2023-04-25T11:56:45;99979.04;;;3.59;65.41
44351;BME280;62766;62.622;17.912;2023-04-25T11:59:13;99973.45;;;3.76;64.55
44351;BME280;62766;62.622;17.912;2023-04-25T12:01:48;99968.82;;;3.85;63.94
44351;BME280;62766;62.622;17.912;2023-04-25T12:04:18;99962.15;;;3.81;63.78
44351;BME280;62766;62.622;17.912;2023-04-25T12:06:48;99960.11;;;3.80;63.06
44351;BME280;62766;62.622;17.912;2023-04-25T12:09:19;99961.33;;;3.91;62.83
44351;BME280;62766;62.622;17.912;2023-04-25T12:11:48;99960.73;;;3.92;63.15
44351;BME280;62766;62.622;17.912;2023-04-25T12:14:23;99957.84;;;4.12;62.95
44351;BME280;62766;62.622;17.912;2023-04-25T12:16:51;99960.29;;;4.13;62.40
44351;BME280;62766;62.622;17.912;2023-04-25T12:19:20;99966.23;;;4.26;61.82
44351;BME280;62766;62.622;17.912;2023-04-25T12:21:49;99964.33;;;4.39;61.06
44351;BME280;62766;62.622;17.912;2023-04-25T12:24:22;99967.74;;;4.44;61.01
44351;BME280;62766;62.622;17.912;2023-04-25T12:26:52;99978.68;;;4.36;60.71
44351;BME280;62766;62.622;17.912;2023-04-25T12:29:22;99975.96;;;4.33;60.81
44351;BME280;62766;62.622;17.912;2023-04-25T12:31:51;99976.10;;;4.29;60.69
44351;BME280;62766;62.622;17.912;2023-04-25T12:34:22;99970.14;;;4.18;60.59
44351;BME280;62766;62.622;17.912;2023-04-25T12:36:52;99965.13;;;4.10;61.16
44351;BME280;62766;62.622;17.912;2023-04-25T12:39:22;99964.11;;;4.25;60.70
44351;BME280;62766;62.622;17.912;2023-04-25T12:41:51;99962.78;;;4.24;60.66
44351;BME280;62766;62.622;17.912;2023-04-25T12:44:20;99966.21;;;4.16;60.64
44351;BME280;62766;62.622;17.912;2023-04-25T12:46:48;99966.61;;;4.42;60.51
44351;BME280;62766;62.622;17.912;2023-04-25T12:49:16;99956.03;;;4.52;59.84
44351;BME280;62766;62.622;17.912;2023-04-25T12:51:45;99950.54;;;4.62;59.36
44351;BME280;62766;62.622;17.912;2023-04-25T12:54:13;99948.77;;;4.60;58.84
44351;BME280;62766;62.622;17.912;2023-04-25T12:56:41;99942.95;;;4.61;58.85
44351;BME280;62766;62.622;17.912;2023-04-25T12:59:10;99935.68;;;4.67;59.15
44351;BME280;62766;62.622;17.912;2023-04-25T13:01:38;99925.49;;;4.77;58.68
44351;BME280;62766;62.622;17.912;2023-04-25T13:04:07;99914.84;;;4.89;58.34
44351;BME280;62766;62.622;17.912;2023-04-25T13:06:35;99918.21;;;4.67;58.24